NCAR-RAP Real-Time Weather Data

Output produced by METARs form (12 May 2021  11:08 UTC)
found at http://weather.rap.ucar.edu/surface/
 
KP28 121056Z AUTO 01004KT 04/02 A3034 RMK AO1 SLP276 T00440022 $
KP28 120956Z AUTO 36004KT 05/03 A3033 RMK AO1 SLP273 T00500028 $
KP28 120856Z AUTO 01005KT 07/04 A3032 RMK AO1 SLP267 T00670039 53006 $
KP28 120756Z AUTO 01005KT 08/04 A3031 RMK AO1 SLP265 T00780044 $
KP28 120656Z AUTO 06003KT 10/06 A3031 RMK AO1 SLP262 T01000061 $
KP28 120556Z AUTO 01003KT 11/06 A3030 RMK AO1 SLP261 T01060061 10139 20106 401720083 51011 $
KP28 120456Z AUTO 04006KT 12/06 A3029 RMK AO1 SLP259 T01170061 $
KP28 120356Z AUTO 04008KT 12/06 A3029 RMK AO1 SLP257 T01170056 $
KP28 120256Z AUTO 05007KT 12/06 A3027 RMK AO1 SLP249 T01220061 53018 $
KP28 120156Z AUTO 04006KT 13/06 A3024 RMK AO1 SLP240 T01280056 $
KP28 120056Z AUTO 05005KT 13/06 A3022 RMK AO1 SLP234 T01330056 $
KP28 112356Z AUTO 05009KT 14/05 A3021 RMK AO1 SLP230 T01390050 10172 20122 53013 $
KP28 112256Z AUTO 06008KT 14/04 A3019 RMK AO1 SLP225 T01440044 $
KP28 112156Z AUTO 04009KT 15/04 A3019 RMK AO1 SLP221 T01500039 $
KP28 112056Z AUTO 05011G18KT 17/05 A3017 RMK AO1 SLP215 T01670050 56020 $